Time;durP1;ratioP1;P1;durP2;ratioP2;P2;SDS_P1;SDS_P2;PMS_P1;PMS_P2;Temp;Humidity;BMP_temperature;BMP_pressure;BME280_temperature;BME280_humidity;BME280_pressure;Samples;Min_cycle;Max_cycle;Signal;HPM_P1;HPM_P2
2022/05/02 00:00:20;;;;;;;7.85;4.43;;;15.60;61.50;;;;;;4175234;28;20528;-60
2022/05/02 00:02:48;;;;;;;6.47;4.43;;;15.60;61.60;;;;;;4168975;28;21797;-61
2022/05/02 00:05:12;;;;;;;5.25;4.70;;;15.60;61.70;;;;;;4179950;28;20036;-61
2022/05/02 00:07:38;;;;;;;5.20;4.78;;;15.60;61.70;;;;;;4177171;28;20123;-61
2022/05/02 00:10:01;;;;;;;6.18;4.88;;;15.60;61.80;;;;;;4182866;28;20518;-61
2022/05/02 00:12:25;;;;;;;7.38;4.60;;;15.50;61.70;;;;;;4200769;28;20044;-61
2022/05/02 00:14:49;;;;;;;5.10;4.72;;;15.50;61.80;;;;;;4177969;28;20067;-61
2022/05/02 00:17:13;;;;;;;5.20;4.70;;;15.50;61.80;;;;;;4186820;28;20044;-61
2022/05/02 00:19:38;;;;;;;5.15;4.65;;;15.50;61.80;;;;;;4189267;28;20057;-61
2022/05/02 00:22:05;;;;;;;5.47;4.97;;;15.50;61.90;;;;;;4188020;28;20052;-61
2022/05/02 00:24:28;;;;;;;6.03;4.68;;;15.50;61.90;;;;;;4186643;28;20388;-61
2022/05/02 00:26:52;;;;;;;6.70;5.30;;;15.50;62.00;;;;;;4186690;28;20053;-61
2022/05/02 00:29:18;;;;;;;6.57;4.80;;;15.50;62.00;;;;;;4161813;28;20507;-61
2022/05/02 00:31:44;;;;;;;7.18;5.10;;;15.50;62.10;;;;;;4184720;28;20490;-61
2022/05/02 00:34:13;;;;;;;5.32;4.93;;;15.50;62.00;;;;;;4180712;28;20548;-61
2022/05/02 00:36:40;;;;;;;5.35;4.75;;;15.50;62.10;;;;;;4188681;28;20396;-61
2022/05/02 00:39:04;;;;;;;5.30;4.80;;;15.40;62.10;;;;;;4174781;28;20049;-61
2022/05/02 00:41:28;;;;;;;5.38;4.88;;;15.40;62.10;;;;;;4172261;28;20111;-61
2022/05/02 00:43:51;;;;;;;5.40;4.90;;;15.40;62.10;;;;;;4169661;28;20043;-61
2022/05/02 00:46:19;;;;;;;6.70;4.72;;;15.40;62.10;;;;;;4161137;28;20106;-61
2022/05/02 00:48:45;;;;;;;5.13;4.72;;;15.40;62.10;;;;;;4171858;28;20057;-62
2022/05/02 00:51:08;;;;;;;5.75;5.05;;;15.40;62.20;;;;;;4181229;28;20086;-62
2022/05/02 00:53:36;;;;;;;5.63;4.93;;;15.40;62.20;;;;;;4188958;28;20080;-61
2022/05/02 00:56:02;;;;;;;6.88;6.18;;;15.40;62.30;;;;;;4186819;28;20078;-62
2022/05/02 00:58:26;;;;;;;7.53;5.18;;;15.40;62.40;;;;;;4189160;28;20048;-62
2022/05/02 01:00:53;;;;;;;6.55;5.03;;;15.40;62.50;;;;;;4176910;28;20050;-62
2022/05/02 01:03:22;;;;;;;6.22;5.30;;;15.40;62.60;;;;;;4187821;28;20048;-61
2022/05/02 01:08:33;;;;;;;6.22;5.65;;;15.30;62.50;;;;;;4155035;28;20392;-61
2022/05/02 01:10:58;;;;;;;6.90;5.30;;;15.30;62.60;;;;;;4157218;28;20045;-61
2022/05/02 01:13:39;;;;;;;7.38;5.50;;;15.30;62.70;;;;;;4184690;28;20055;-62
2022/05/02 01:16:09;;;;;;;6.25;5.47;;;15.30;62.60;;;;;;4172592;28;20057;-62
2022/05/02 01:18:37;;;;;;;5.95;5.35;;;15.30;62.70;;;;;;4169306;28;20415;-62
2022/05/02 01:21:03;;;;;;;6.07;5.47;;;15.30;62.80;;;;;;4174875;28;20048;-62
2022/05/02 01:23:26;;;;;;;7.13;5.68;;;15.30;63.20;;;;;;4170256;28;20103;-62
2022/05/02 01:25:53;;;;;;;9.38;5.90;;;15.30;62.80;;;;;;4167886;28;20488;-62
2022/05/02 01:28:16;;;;;;;7.22;6.07;;;15.20;62.70;;;;;;4178310;28;20059;-62
2022/05/02 01:30:40;;;;;;;7.63;6.18;;;15.20;62.80;;;;;;4170781;28;20041;-62
2022/05/02 01:33:10;;;;;;;7.13;5.90;;;15.20;62.80;;;;;;4151296;28;20083;-61
2022/05/02 01:35:34;;;;;;;6.30;5.55;;;15.20;62.90;;;;;;4193232;28;20098;-61
2022/05/02 01:37:59;;;;;;;8.50;6.05;;;15.20;62.90;;;;;;4187381;28;20079;-61
2022/05/02 01:40:22;;;;;;;6.15;5.55;;;15.20;62.90;;;;;;4188141;28;20578;-62
2022/05/02 01:42:47;;;;;;;7.55;6.13;;;15.20;62.90;;;;;;4172288;28;20415;-62
2022/05/02 01:45:11;;;;;;;6.40;5.80;;;15.20;63.00;;;;;;4171896;28;20085;-62
2022/05/02 01:47:36;;;;;;;5.68;5.18;;;15.20;63.00;;;;;;4188113;28;20503;-62
2022/05/02 01:49:59;;;;;;;6.60;5.03;;;15.20;63.00;;;;;;4182072;28;20055;-62
2022/05/02 01:52:22;;;;;;;8.55;6.13;;;15.20;63.00;;;;;;4197869;28;20094;-62
2022/05/02 01:54:46;;;;;;;6.38;5.88;;;15.20;63.10;;;;;;4189271;28;20112;-62
2022/05/02 01:57:10;;;;;;;6.55;5.90;;;15.10;63.00;;;;;;4189446;28;20163;-63
2022/05/02 01:59:33;;;;;;;6.22;5.65;;;15.20;63.10;;;;;;4167763;28;20151;-62
2022/05/02 02:02:05;;;;;;;5.70;5.30;;;15.10;63.10;;;;;;4197090;28;20068;-62
2022/05/02 02:07:14;;;;;;;6.93;5.65;;;15.10;63.10;;;;;;4181548;28;20045;-63
2022/05/02 02:09:38;;;;;;;9.98;6.85;;;15.10;63.10;;;;;;4177472;28;20131;-63
2022/05/02 02:12:03;;;;;;;7.45;6.28;;;15.10;63.10;;;;;;4179379;28;20052;-63
2022/05/02 02:14:26;;;;;;;9.98;5.82;;;15.10;63.10;;;;;;4185748;28;20048;-64
2022/05/02 02:16:50;;;;;;;9.77;7.40;;;15.10;63.20;;;;;;4188235;28;20059;-62
2022/05/02 02:19:17;;;;;;;8.35;6.70;;;15.10;63.20;;;;;;4175896;28;20120;-62
2022/05/02 02:21:40;;;;;;;7.55;6.88;;;15.00;63.10;;;;;;4155170;28;20436;-63
2022/05/02 02:24:07;;;;;;;7.70;7.00;;;15.00;63.20;;;;;;4145462;28;20573;-63
2022/05/02 02:26:30;;;;;;;8.38;6.80;;;15.00;63.20;;;;;;4171933;28;20052;-62
2022/05/02 02:28:56;;;;;;;8.55;7.30;;;15.10;63.30;;;;;;4167361;28;20041;-63
2022/05/02 02:31:19;;;;;;;9.45;6.60;;;15.00;63.30;;;;;;4159225;28;20515;-63
2022/05/02 02:33:47;;;;;;;9.32;6.93;;;15.00;63.30;;;;;;4189233;28;20116;-62
2022/05/02 02:36:12;;;;;;;9.02;6.63;;;15.00;63.40;;;;;;4188881;28;20049;-63
2022/05/02 02:38:38;;;;;;;8.20;7.18;;;15.00;63.40;;;;;;4163599;28;20527;-63
2022/05/02 02:41:06;;;;;;;7.72;6.65;;;15.00;63.40;;;;;;4173186;28;20443;-63
2022/05/02 02:43:30;;;;;;;9.05;7.03;;;15.00;63.40;;;;;;4181196;28;20591;-63
2022/05/02 02:45:55;;;;;;;8.90;7.93;;;15.00;63.40;;;;;;4189784;28;20442;-63
2022/05/02 02:48:19;;;;;;;9.32;6.68;;;15.00;63.40;;;;;;4202921;28;20052;-62
2022/05/02 02:50:42;;;;;;;7.10;6.50;;;14.90;63.40;;;;;;4191092;28;20124;-62
2022/05/02 02:53:08;;;;;;;7.22;6.22;;;15.00;63.50;;;;;;4188056;28;20418;-63
2022/05/02 02:55:32;;;;;;;9.38;6.85;;;14.90;63.50;;;;;;4179101;28;20401;-63
2022/05/02 02:57:55;;;;;;;8.15;6.68;;;14.90;63.50;;;;;;4192646;28;20048;-62
2022/05/02 03:00:20;;;;;;;7.32;6.53;;;14.90;63.50;;;;;;4201845;28;20043;-62
2022/05/02 03:02:45;;;;;;;8.32;7.30;;;14.90;63.50;;;;;;4199710;28;20044;-63
2022/05/02 03:08:04;;;;;;;7.75;7.05;;;14.90;63.60;;;;;;4186360;28;20076;-62
2022/05/02 03:10:31;;;;;;;8.18;6.68;;;14.90;63.60;;;;;;4183872;28;20040;-63
2022/05/02 03:12:56;;;;;;;7.10;6.43;;;14.90;63.60;;;;;;4176952;28;20049;-63
2022/05/02 03:15:20;;;;;;;10.85;6.70;;;14.80;63.60;;;;;;4173896;28;20565;-63
2022/05/02 03:17:44;;;;;;;7.03;6.18;;;14.90;63.70;;;;;;4185848;28;20052;-63
2022/05/02 03:20:12;;;;;;;6.32;5.72;;;14.80;63.60;;;;;;4173592;28;20049;-62
2022/05/02 03:22:39;;;;;;;9.80;6.18;;;14.80;63.60;;;;;;4177854;28;20491;-62
2022/05/02 03:25:06;;;;;;;9.77;6.95;;;14.80;63.60;;;;;;4191960;28;20040;-63
2022/05/02 03:27:29;;;;;;;7.25;6.18;;;14.80;63.70;;;;;;4190709;28;20044;-62
2022/05/02 03:29:53;;;;;;;6.60;6.00;;;14.80;63.70;;;;;;4179014;28;20577;-63
2022/05/02 03:32:22;;;;;;;7.03;6.43;;;14.80;63.70;;;;;;4192995;28;20067;-62
2022/05/02 03:34:47;;;;;;;6.95;6.28;;;14.80;63.70;;;;;;4175136;28;20471;-62
2022/05/02 03:37:22;;;;;;;8.30;6.50;;;14.80;63.70;;;;;;4172285;28;20716;-63
2022/05/02 03:39:45;;;;;;;7.57;6.93;;;14.80;63.70;;;;;;4179547;28;20143;-63
2022/05/02 03:42:09;;;;;;;7.15;6.55;;;14.80;63.90;;;;;;4161193;28;20123;-63
2022/05/02 03:44:37;;;;;;;10.13;6.68;;;14.70;63.70;;;;;;4163158;28;20078;-63
2022/05/02 03:47:00;;;;;;;7.22;6.38;;;14.80;63.90;;;;;;4159228;28;20081;-63
2022/05/02 03:49:24;;;;;;;6.88;6.15;;;14.70;63.80;;;;;;4179984;28;20116;-62
2022/05/02 03:51:52;;;;;;;6.57;5.88;;;14.70;63.80;;;;;;4170490;28;20407;-62
2022/05/02 03:54:16;;;;;;;6.63;6.03;;;14.70;63.80;;;;;;4190642;28;20052;-62
2022/05/02 03:56:39;;;;;;;7.28;6.57;;;14.80;63.90;;;;;;4192994;28;20052;-62
2022/05/02 03:59:03;;;;;;;7.18;6.47;;;14.70;63.80;;;;;;4165562;28;20056;-62
2022/05/02 04:01:26;;;;;;;7.82;7.10;;;14.70;63.90;;;;;;4185690;28;20057;-62
2022/05/02 04:03:49;;;;;;;8.27;7.47;;;14.70;63.90;;;;;;4170709;28;20045;-61
2022/05/02 04:06:18;;;;;;;7.28;6.57;;;14.70;63.90;;;;;;4173720;28;20123;-62
2022/05/02 04:08:43;;;;;;;8.95;7.03;;;14.70;63.90;;;;;;4193122;28;20052;-62
2022/05/02 04:11:06;;;;;;;8.23;6.75;;;14.70;63.90;;;;;;4189835;28;20138;-62
2022/05/02 04:13:32;;;;;;;7.70;6.93;;;14.70;63.90;;;;;;4165966;28;20059;-62
2022/05/02 04:15:55;;;;;;;7.55;6.18;;;14.70;64.00;;;;;;4174252;28;20159;-62
2022/05/02 04:18:27;;;;;;;8.45;6.88;;;14.70;64.00;;;;;;4168940;28;20496;-62
2022/05/02 04:20:53;;;;;;;7.00;6.38;;;14.70;64.10;;;;;;4172527;28;20060;-62
2022/05/02 04:23:20;;;;;;;8.25;7.13;;;14.70;64.20;;;;;;4166386;28;20059;-62
2022/05/02 04:25:51;;;;;;;7.10;6.50;;;14.60;64.10;;;;;;4184405;28;20541;-63
2022/05/02 04:28:18;;;;;;;7.82;5.82;;;14.60;64.20;;;;;;4189332;28;20068;-62
2022/05/02 04:30:41;;;;;;;10.73;7.60;;;14.70;64.20;;;;;;4180435;28;20098;-63
2022/05/02 04:33:05;;;;;;;10.05;7.38;;;14.60;64.10;;;;;;4195760;28;20048;-62
2022/05/02 04:35:28;;;;;;;7.65;6.18;;;14.60;64.10;;;;;;4177954;28;20123;-64
2022/05/02 04:37:58;;;;;;;8.68;6.43;;;14.60;64.40;;;;;;4201471;28;20048;-64
2022/05/02 04:40:22;;;;;;;7.90;6.13;;;14.70;64.80;;;;;;4179903;28;20054;-66
2022/05/02 04:42:48;;;;;;;6.53;5.93;;;14.70;64.90;;;;;;4169423;28;20557;-64
2022/05/02 04:45:12;;;;;;;6.95;6.25;;;14.70;64.80;;;;;;4149121;28;20098;-64
2022/05/02 04:47:35;;;;;;;7.47;6.55;;;14.70;64.70;;;;;;4172251;28;20048;-62
2022/05/02 04:50:00;;;;;;;6.93;6.10;;;14.70;64.50;;;;;;4157896;28;20536;-63
2022/05/02 04:52:27;;;;;;;6.03;5.53;;;14.70;64.40;;;;;;4187100;28;20549;-63
2022/05/02 04:54:50;;;;;;;8.80;7.97;;;14.70;64.30;;;;;;4188343;28;20119;-65
2022/05/02 04:57:14;;;;;;;16.48;14.88;;;14.70;64.30;;;;;;4187421;28;20068;-64
2022/05/02 04:59:42;;;;;;;12.15;8.13;;;14.70;64.30;;;;;;4188689;28;20048;-64
2022/05/02 05:02:07;;;;;;;19.25;17.52;;;14.70;64.40;;;;;;4187282;28;20044;-66
2022/05/02 05:04:31;;;;;;;18.05;16.35;;;14.70;64.40;;;;;;4186580;28;20520;-66
2022/05/02 05:06:56;;;;;;;9.88;8.95;;;14.70;64.40;;;;;;4177671;28;20145;-66
2022/05/02 05:09:19;;;;;;;9.88;8.63;;;14.70;64.30;;;;;;4190963;28;20056;-66
2022/05/02 05:11:51;;;;;;;8.32;7.53;;;14.70;64.40;;;;;;4187439;28;20048;-69
2022/05/02 05:17:18;;;;;;;9.52;7.03;;;14.70;64.20;;;;;;4189039;28;20132;-66
2022/05/02 05:20:03;;;;;;;9.02;7.35;;;14.70;64.20;;;;;;4171675;28;20052;-66
2022/05/02 05:22:51;;;;;;;7.40;6.70;;;14.70;64.30;;;;;;4176651;28;20434;-66
2022/05/02 05:25:32;;;;;;;9.05;7.38;;;14.70;64.20;;;;;;4169561;28;20524;-66
2022/05/02 05:28:05;;;;;;;8.35;7.55;;;14.70;64.30;;;;;;4175037;28;20045;-66
2022/05/02 05:30:42;;;;;;;7.35;6.75;;;14.80;64.60;;;;;;4162004;28;20098;-66
2022/05/02 05:33:25;;;;;;;9.18;7.40;;;14.80;64.70;;;;;;4169918;28;20128;-66
2022/05/02 05:36:02;;;;;;;8.35;7.38;;;14.80;64.80;;;;;;4169561;28;20651;-65
2022/05/02 05:38:32;;;;;;;10.30;8.07;;;14.80;64.90;;;;;;4187098;28;20044;-65
2022/05/02 05:41:11;;;;;;;8.30;7.25;;;14.80;64.90;;;;;;4181921;28;20059;-65
2022/05/02 05:43:53;;;;;;;8.05;7.25;;;14.80;64.70;;;;;;4194324;28;20048;-65
2022/05/02 05:46:38;;;;;;;8.07;6.47;;;14.80;64.80;;;;;;4187740;28;20126;-65
2022/05/02 05:49:12;;;;;;;7.65;6.70;;;14.80;64.70;;;;;;4179177;28;20037;-65
2022/05/02 05:51:38;;;;;;;8.13;6.35;;;14.80;64.80;;;;;;4189681;28;20139;-65
2022/05/02 05:54:38;;;;;;;7.45;6.82;;;14.80;64.80;;;;;;4184451;28;20076;-65
2022/05/02 05:57:14;;;;;;;7.97;6.80;;;14.90;64.80;;;;;;4184051;28;20480;-65
2022/05/02 05:59:49;;;;;;;8.93;7.10;;;14.90;64.90;;;;;;4190938;28;20056;-65
2022/05/02 06:02:27;;;;;;;9.77;8.35;;;14.90;64.90;;;;;;4193754;28;20551;-65
2022/05/02 06:04:52;;;;;;;11.40;7.85;;;14.90;64.90;;;;;;4174179;28;20131;-65
2022/05/02 06:07:19;;;;;;;10.85;7.80;;;14.90;64.80;;;;;;4182180;28;20052;-65
2022/05/02 06:09:44;;;;;;;10.10;8.70;;;14.90;64.80;;;;;;4189933;28;20384;-65
2022/05/02 06:12:13;;;;;;;11.02;9.15;;;15.00;64.60;;;;;;4189738;28;20534;-65
2022/05/02 06:18:27;;;;;;;12.98;9.25;;;15.00;64.50;;;;;;4190310;28;20069;-65
2022/05/02 06:20:14;;;;;;;10.15;8.18;;;15.00;64.80;;;;;;4192058;28;20048;-65
2022/05/02 06:22:45;;;;;;;9.20;8.10;;;15.00;64.90;;;;;;4191315;28;20060;-65
2022/05/02 06:25:11;;;;;;;11.80;8.68;;;15.00;64.90;;;;;;4174511;28;20049;-65
2022/05/02 06:27:35;;;;;;;8.85;8.05;;;15.00;65.00;;;;;;4174433;28;20450;-66
2022/05/02 06:30:02;;;;;;;11.35;8.32;;;15.00;65.00;;;;;;4173907;28;20053;-65
2022/05/02 06:32:25;;;;;;;11.57;8.23;;;15.10;66.00;;;;;;4173858;28;20098;-65
2022/05/02 06:34:51;;;;;;;10.07;7.75;;;15.10;65.10;;;;;;4178770;28;20056;-65
2022/05/02 06:37:43;;;;;;;9.65;8.60;;;15.20;65.90;;;;;;4189638;28;20407;-65
2022/05/02 06:40:13;;;;;;;13.18;8.63;;;15.20;64.80;;;;;;4188617;28;20063;-65
2022/05/02 06:42:43;;;;;;;9.80;8.73;;;15.20;64.40;;;;;;4188845;28;20075;-65
2022/05/02 06:45:22;;;;;;;10.05;8.82;;;15.30;64.30;;;;;;4180795;28;20496;-65
2022/05/02 06:47:57;;;;;;;9.30;7.97;;;15.30;64.10;;;;;;4188522;28;20550;-65
2022/05/02 06:50:25;;;;;;;9.48;8.38;;;15.40;64.00;;;;;;4188225;28;20064;-65
2022/05/02 06:53:12;;;;;;;8.85;8.02;;;15.40;63.80;;;;;;4181176;28;20125;-66
2022/05/02 06:55:45;;;;;;;9.40;8.50;;;15.40;63.70;;;;;;4195869;28;20045;-65
2022/05/02 06:58:23;;;;;;;14.95;8.13;;;15.50;63.60;;;;;;4187436;28;20136;-65
2022/05/02 07:00:55;;;;;;;11.23;8.10;;;15.50;63.30;;;;;;4179308;28;20094;-65
2022/05/02 07:03:50;;;;;;;12.45;7.78;;;15.50;62.90;;;;;;4187087;28;20094;-65
2022/05/02 07:06:31;;;;;;;11.73;7.68;;;15.50;63.00;;;;;;4173396;28;20041;-65
2022/05/02 07:09:05;;;;;;;9.38;8.07;;;15.60;62.80;;;;;;4168710;28;20040;-65
2022/05/02 07:11:43;;;;;;;11.57;8.30;;;15.60;62.90;;;;;;4168396;28;20127;-65
2022/05/02 07:14:21;;;;;;;9.52;8.38;;;15.60;62.80;;;;;;4174291;28;20067;-65
2022/05/02 07:16:49;;;;;;;9.70;7.85;;;15.60;62.40;;;;;;4160066;28;20096;-65
2022/05/02 07:19:25;;;;;;;;;;;15.70;62.40;;;;;;4136843;28;20123;-65
2022/05/02 07:21:58;;;;;;;11.60;8.32;;;15.70;62.30;;;;;;4163922;28;19986;-65
2022/05/02 07:24:48;;;;;;;10.82;7.05;;;15.70;62.30;;;;;;4157466;28;20446;-65
2022/05/02 07:27:25;;;;;;;8.85;7.85;;;15.80;62.20;;;;;;4174157;28;20110;-65
2022/05/02 07:29:52;;;;;;;7.60;6.57;;;15.80;62.00;;;;;;4168930;28;20041;-66
2022/05/02 07:32:17;;;;;;;9.52;7.38;;;15.80;61.90;;;;;;4164024;28;20045;-65
2022/05/02 07:34:50;;;;;;;8.07;7.28;;;15.80;61.90;;;;;;4169153;28;20139;-65
2022/05/02 07:37:19;;;;;;;9.70;7.10;;;15.90;61.20;;;;;;4173284;28;20087;-65
2022/05/02 07:39:52;;;;;;;9.82;7.20;;;15.90;61.00;;;;;;4187299;28;20057;-65
2022/05/02 07:42:22;;;;;;;8.85;7.28;;;15.90;61.00;;;;;;4180002;28;20137;-66
2022/05/02 07:44:48;;;;;;;10.10;7.00;;;15.90;61.10;;;;;;4185334;28;20063;-66
2022/05/02 07:47:16;;;;;;;6.82;6.15;;;15.90;61.30;;;;;;4151815;28;20088;-66
2022/05/02 07:49:50;;;;;;;7.65;5.38;;;16.00;61.30;;;;;;4187264;28;20672;-66
2022/05/02 07:52:21;;;;;;;9.27;6.30;;;16.00;61.40;;;;;;4174334;28;20041;-65
2022/05/02 07:54:50;;;;;;;9.57;6.20;;;16.00;61.30;;;;;;4190233;28;20404;-66
2022/05/02 07:57:18;;;;;;;7.43;6.35;;;16.00;61.40;;;;;;4190009;28;20105;-66
2022/05/02 07:59:45;;;;;;;10.77;6.00;;;16.00;61.30;;;;;;4193599;28;20048;-66
2022/05/02 08:02:09;;;;;;;9.13;5.75;;;16.10;61.20;;;;;;4188097;28;20053;-66
2022/05/02 08:04:33;;;;;;;7.75;5.88;;;16.10;61.10;;;;;;4189445;28;20055;-66
2022/05/02 08:07:04;;;;;;;7.85;5.75;;;16.10;60.60;;;;;;4183632;28;20528;-66
2022/05/02 08:09:42;;;;;;;7.80;6.05;;;16.10;59.90;;;;;;4191555;28;20056;-66
2022/05/02 08:12:21;;;;;;;9.32;6.55;;;16.10;59.70;;;;;;4181538;28;20131;-66
2022/05/02 08:14:54;;;;;;;7.80;6.40;;;16.20;59.80;;;;;;4191665;28;20532;-66
2022/05/02 08:17:26;;;;;;;7.55;6.25;;;16.20;59.80;;;;;;4190156;28;20048;-65
2022/05/02 08:20:07;;;;;;;9.18;5.72;;;16.20;60.00;;;;;;4204103;28;20093;-66
2022/05/02 08:28:19;;;;;;;9.27;6.32;;;16.30;60.10;;;;;;4163984;28;20113;-65
2022/05/02 08:30:49;;;;;;;6.70;6.00;;;16.30;59.60;;;;;;4173586;28;20386;-66
2022/05/02 08:33:26;;;;;;;10.57;6.43;;;16.30;59.00;;;;;;4167526;28;20048;-66
2022/05/02 08:35:58;;;;;;;7.00;5.93;;;16.30;59.40;;;;;;4174976;28;20051;-65
2022/05/02 08:38:37;;;;;;;8.40;6.30;;;16.40;59.50;;;;;;4186085;28;20053;-66
2022/05/02 08:41:36;;;;;;;8.60;6.57;;;16.40;59.20;;;;;;4193936;28;20052;-66
2022/05/02 08:44:36;;;;;;;9.40;6.40;;;16.40;58.60;;;;;;4164581;28;20812;-65
2022/05/02 08:47:43;;;;;;;9.00;6.78;;;16.40;58.50;;;;;;4185487;28;20412;-65
2022/05/02 08:50:47;;;;;;;7.30;6.55;;;16.40;58.70;;;;;;4108211;28;20058;-65
2022/05/02 08:53:56;;;;;;;11.60;6.57;;;16.50;58.80;;;;;;4174475;28;20118;-65
2022/05/02 08:57:02;;;;;;;10.05;7.00;;;16.50;58.50;;;;;;4079631;28;20487;-65
2022/05/02 09:00:00;;;;;;;9.75;7.32;;;16.60;59.00;;;;;;4176418;28;20044;-66
2022/05/02 09:03:07;;;;;;;137.13;11.07;;;16.60;58.00;;;;;;4188167;28;20086;-65
2022/05/02 09:05:47;;;;;;;182.93;13.68;;;16.60;57.70;;;;;;4187580;28;20139;-66
2022/05/02 09:08:47;;;;;;;234.80;15.45;;;16.60;58.20;;;;;;4190481;28;20479;-65
2022/05/02 09:11:31;;;;;;;182.40;14.02;;;16.70;58.40;;;;;;4176338;28;20063;-65
2022/05/02 09:14:38;;;;;;;297.55;14.70;;;16.70;58.10;;;;;;4167646;28;20049;-66
2022/05/02 09:17:39;;;;;;;7.68;6.20;;;16.80;57.80;;;;;;4172397;28;20414;-66
2022/05/02 09:20:22;;;;;;;375.65;24.55;;;16.80;58.00;;;;;;4174868;28;20048;-66
2022/05/02 09:23:37;;;;;;;35.38;7.35;;;16.80;58.10;;;;;;4172207;28;20045;-66
2022/05/02 09:26:24;;;;;;;;;;;16.80;57.60;;;;;;4180860;28;20090;-65
2022/05/02 09:29:23;;;;;;;50.92;6.22;;;16.90;57.60;;;;;;4185521;28;19920;-66
2022/05/02 09:31:58;;;;;;;9.25;7.10;;;17.00;57.80;;;;;;4189300;28;20058;-66
2022/05/02 09:34:35;;;;;;;8.85;5.90;;;16.90;57.70;;;;;;4193060;28;20048;-66
2022/05/02 09:37:03;;;;;;;7.97;5.57;;;17.00;57.70;;;;;;4186753;28;20040;-66
2022/05/02 09:39:46;;;;;;;5.82;5.28;;;17.00;57.80;;;;;;4192471;28;20052;-65
2022/05/02 09:42:28;;;;;;;8.57;6.20;;;17.10;57.80;;;;;;4183378;28;20051;-66
2022/05/02 09:51:15;;;;;;;6.35;5.32;;;17.30;57.80;;;;;;4168872;28;20156;-67
2022/05/02 09:53:54;;;;;;;113.72;11.13;;;17.30;58.10;;;;;;4173145;28;20061;-66
2022/05/02 09:56:39;;;;;;;43.55;10.20;;;17.40;58.00;;;;;;4175698;28;20056;-66
2022/05/02 09:59:07;;;;;;;40.22;8.48;;;17.40;57.80;;;;;;4178064;28;20044;-65
2022/05/02 10:01:33;;;;;;;8.07;5.38;;;17.40;57.60;;;;;;4195153;28;20046;-65
2022/05/02 10:04:20;;;;;;;11.95;5.85;;;17.50;57.40;;;;;;4194446;28;20053;-64
2022/05/02 10:06:47;;;;;;;0.05;0.05;;;17.50;57.30;;;;;;4193636;28;20059;-64
2022/05/02 10:09:23;;;;;;;0.95;0.95;;;17.50;57.00;;;;;;4193468;28;20037;-64
2022/05/02 10:12:08;;;;;;;1.55;1.48;;;17.40;56.70;;;;;;4193888;28;20076;-64
2022/05/02 10:14:57;;;;;;;0.00;0.00;;;17.50;56.70;;;;;;4193400;28;20415;-64
2022/05/02 10:17:41;;;;;;;0.00;0.00;;;17.40;56.60;;;;;;4192419;28;20048;-64
2022/05/02 10:20:12;;;;;;;0.03;0.03;;;17.40;56.50;;;;;;4177179;28;20135;-64
2022/05/02 10:22:48;;;;;;;0.13;0.13;;;17.40;55.80;;;;;;4175699;28;20048;-64
2022/05/02 10:25:20;;;;;;;0.00;0.00;;;17.50;56.30;;;;;;4175401;28;20041;-64
2022/05/02 10:28:08;;;;;;;0.10;0.10;;;17.50;56.30;;;;;;4176479;28;20507;-65
2022/05/02 10:30:43;;;;;;;0.00;0.00;;;17.50;56.00;;;;;;4176766;28;20163;-65
2022/05/02 10:33:13;;;;;;;0.00;0.00;;;17.50;56.20;;;;;;4175662;28;20052;-65
2022/05/02 10:35:38;;;;;;;0.00;0.00;;;17.50;56.10;;;;;;4178317;28;20055;-65
2022/05/02 10:38:02;;;;;;;0.20;0.20;;;17.50;55.90;;;;;;4190730;28;20080;-64
2022/05/02 10:40:31;;;;;;;0.93;0.90;;;17.50;55.90;;;;;;4185713;28;20056;-64
2022/05/02 10:42:58;;;;;;;0.28;0.28;;;17.50;56.00;;;;;;4193730;28;20094;-64
2022/05/02 10:45:26;;;;;;;0.05;0.05;;;17.50;56.10;;;;;;4194608;28;20105;-65
2022/05/02 10:47:53;;;;;;;0.00;0.00;;;17.50;56.10;;;;;;4193085;28;20076;-65
2022/05/02 10:50:19;;;;;;;0.03;0.03;;;17.50;56.00;;;;;;4193115;28;20056;-65
2022/05/02 10:52:54;;;;;;;0.08;0.08;;;17.50;56.10;;;;;;4191892;28;20049;-65
2022/05/02 10:55:21;;;;;;;0.05;0.05;;;17.50;55.90;;;;;;4192836;28;20048;-64
2022/05/02 10:57:50;;;;;;;0.00;0.00;;;17.50;55.90;;;;;;4191148;28;20052;-65
2022/05/02 11:00:13;;;;;;;0.22;0.22;;;17.50;56.00;;;;;;4183127;28;20068;-64
2022/05/02 11:02:52;;;;;;;0.00;0.00;;;17.50;56.10;;;;;;4190687;28;20050;-64
2022/05/02 11:05:16;;;;;;;0.00;0.00;;;17.50;55.90;;;;;;4193462;28;20106;-65
2022/05/02 11:07:58;;;;;;;0.00;0.00;;;17.60;56.10;;;;;;4193187;28;20139;-65
2022/05/02 11:10:25;;;;;;;19.38;1.55;;;17.60;56.10;;;;;;4191553;28;20091;-65
2022/05/02 11:12:52;;;;;;;0.32;0.32;;;17.60;55.70;;;;;;4161222;28;20060;-64
2022/05/02 11:15:19;;;;;;;0.05;0.05;;;17.60;55.50;;;;;;4159563;28;20401;-64
2022/05/02 11:18:04;;;;;;;0.32;0.32;;;17.60;55.90;;;;;;4160703;28;20989;-64
2022/05/02 11:20:41;;;;;;;0.85;0.85;;;17.60;55.90;;;;;;4172318;28;20056;-64
2022/05/02 11:23:26;;;;;;;0.10;0.10;;;17.60;55.90;;;;;;4176148;28;20053;-65
2022/05/02 11:26:05;;;;;;;0.00;0.00;;;17.60;56.00;;;;;;4176496;28;20056;-64
2022/05/02 11:28:38;;;;;;;0.00;0.00;;;17.70;55.90;;;;;;4177144;28;20720;-65
2022/05/02 11:31:10;;;;;;;0.20;0.20;;;17.70;56.00;;;;;;4179703;28;21008;-65
2022/05/02 11:33:44;;;;;;;0.22;0.22;;;17.70;56.00;;;;;;4191314;28;20056;-64
2022/05/02 11:36:12;;;;;;;0.00;0.00;;;17.70;56.00;;;;;;4191717;28;20345;-64
2022/05/02 11:38:42;;;;;;;0.07;0.07;;;17.70;55.80;;;;;;4190134;28;20068;-64
2022/05/02 11:41:14;;;;;;;0.00;0.00;;;17.80;55.40;;;;;;4186358;28;20359;-64
2022/05/02 11:43:37;;;;;;;0.30;0.30;;;17.80;55.70;;;;;;4176024;28;20381;-64
2022/05/02 11:46:11;;;;;;;0.10;0.10;;;17.80;55.70;;;;;;4176696;28;20055;-64
2022/05/02 11:49:03;;;;;;;0.80;0.80;;;17.80;55.70;;;;;;4175751;28;20096;-64
2022/05/02 11:51:43;;;;;;;0.03;0.03;;;17.80;55.70;;;;;;4177010;28;20068;-64
2022/05/02 11:54:26;;;;;;;0.00;0.00;;;17.80;55.70;;;;;;4189991;28;20044;-64
2022/05/02 11:56:56;;;;;;;0.70;0.70;;;17.90;55.70;;;;;;4172403;28;20051;-64
2022/05/02 11:59:24;;;;;;;0.00;0.00;;;17.90;55.70;;;;;;4202249;28;20086;-64
2022/05/02 12:01:54;;;;;;;0.47;0.47;;;17.90;55.70;;;;;;4169578;28;20088;-65
2022/05/02 12:04:25;;;;;;;0.00;0.00;;;17.90;55.70;;;;;;4173784;28;20111;-63
2022/05/02 12:07:00;;;;;;;0.00;0.00;;;17.90;55.70;;;;;;4173818;28;20429;-65
2022/05/02 12:09:24;;;;;;;0.00;0.00;;;17.90;55.70;;;;;;4190700;28;20048;-64
2022/05/02 12:11:55;;;;;;;0.00;0.00;;;17.90;55.70;;;;;;4189199;28;20498;-64
2022/05/02 12:14:20;;;;;;;0.00;0.00;;;17.90;55.80;;;;;;4190178;28;20044;-64
2022/05/02 12:17:09;;;;;;;0.00;0.00;;;17.90;55.70;;;;;;4182598;28;20378;-64
2022/05/02 12:19:35;;;;;;;0.00;0.00;;;17.90;55.60;;;;;;4189738;28;20068;-64
2022/05/02 12:21:59;;;;;;;0.63;0.63;;;18.00;55.20;;;;;;4180651;28;20064;-64
2022/05/02 12:24:29;;;;;;;0.00;0.00;;;18.00;55.20;;;;;;4189859;28;20063;-64
2022/05/02 12:26:53;;;;;;;0.00;0.00;;;18.00;55.10;;;;;;4182942;28;20047;-64
2022/05/02 12:29:19;;;;;;;0.00;0.00;;;18.00;55.10;;;;;;4184167;28;20175;-64
2022/05/02 12:31:44;;;;;;;0.10;0.10;;;18.00;54.90;;;;;;4165869;28;20056;-64
2022/05/02 12:34:09;;;;;;;0.15;0.15;;;18.00;55.00;;;;;;4172249;28;20554;-64
2022/05/02 12:36:57;;;;;;;0.10;0.10;;;18.10;54.90;;;;;;4174236;28;20225;-64
2022/05/02 12:39:24;;;;;;;0.00;0.00;;;18.10;55.10;;;;;;4172774;28;20107;-64
2022/05/02 12:41:49;;;;;;;0.88;0.70;;;18.10;55.00;;;;;;4172569;28;20057;-64
2022/05/02 12:44:13;;;;;;;0.00;0.00;;;18.20;55.10;;;;;;4174127;28;20060;-64
2022/05/02 12:46:39;;;;;;;0.13;0.13;;;18.20;55.10;;;;;;4184436;28;20062;-64
2022/05/02 12:49:05;;;;;;;0.00;0.00;;;18.20;55.10;;;;;;4187506;28;20486;-64
2022/05/02 12:51:29;;;;;;;0.10;0.10;;;18.20;55.10;;;;;;4180411;28;20052;-64
2022/05/02 12:54:13;;;;;;;0.00;0.00;;;18.30;55.20;;;;;;4190636;28;20475;-64
2022/05/02 13:00:30;;;;;;;0.10;0.10;;;18.30;55.30;;;;;;4184605;28;20078;-64
2022/05/02 13:02:31;;;;;;;0.00;0.00;;;18.30;54.20;;;;;;4190041;28;20068;-65
2022/05/02 13:04:55;;;;;;;0.00;0.00;;;18.40;54.80;;;;;;4186974;28;20041;-64
2022/05/02 13:07:18;;;;;;;0.00;0.00;;;18.40;54.70;;;;;;4190533;28;20051;-64
2022/05/02 13:09:44;;;;;;;0.50;0.50;;;18.40;54.90;;;;;;4190748;28;20040;-64
2022/05/02 13:12:10;;;;;;;0.05;0.05;;;18.40;54.80;;;;;;4191682;28;20075;-64
2022/05/02 13:14:32;;;;;;;0.00;0.00;;;18.40;54.50;;;;;;4173655;28;20404;-64
2022/05/02 13:16:56;;;;;;;0.00;0.00;;;18.40;54.60;;;;;;4189681;28;20576;-64
2022/05/02 13:19:34;;;;;;;0.00;0.00;;;18.50;54.70;;;;;;4189784;28;20056;-64
2022/05/02 13:21:57;;;;;;;0.00;0.00;;;18.50;54.40;;;;;;4190718;28;20049;-63
2022/05/02 13:24:19;;;;;;;0.88;0.85;;;18.50;54.30;;;;;;4175856;28;20044;-64
2022/05/02 13:26:54;;;;;;;0.00;0.00;;;18.50;54.00;;;;;;4173636;28;20041;-64
2022/05/02 13:29:28;;;;;;;0.00;0.00;;;18.60;53.90;;;;;;4173627;28;20052;-65
2022/05/02 13:31:59;;;;;;;0.00;0.00;;;18.60;53.70;;;;;;4180186;28;20048;-64
2022/05/02 13:34:36;;;;;;;0.10;0.10;;;18.50;53.50;;;;;;4193138;28;20040;-65